sensor_id;sensor_type;location;lat;lon;timestamp;pressure;altitude;pressure_sealevel;temperature;humidity
41573;BME280;27286;47.870;19.006;2023-04-30T00:01:03;99162.81;;;8.39;100.00
41573;BME280;27286;47.870;19.006;2023-04-30T00:03:28;99166.47;;;8.33;100.00
41573;BME280;27286;47.870;19.006;2023-04-30T00:05:54;99162.28;;;8.29;100.00
41573;BME280;27286;47.870;19.006;2023-04-30T00:08:20;99166.63;;;8.29;100.00
41573;BME280;27286;47.870;19.006;2023-04-30T00:10:45;99162.25;;;8.31;100.00
41573;BME280;27286;47.870;19.006;2023-04-30T00:13:10;99164.75;;;8.34;100.00
41573;BME280;27286;47.870;19.006;2023-04-30T00:15:38;99155.16;;;8.36;100.00
41573;BME280;27286;47.870;19.006;2023-04-30T00:18:03;99161.94;;;8.40;100.00
41573;BME280;27286;47.870;19.006;2023-04-30T00:20:31;99154.25;;;8.37;100.00
41573;BME280;27286;47.870;19.006;2023-04-30T00:22:56;99160.34;;;8.36;100.00
41573;BME280;27286;47.870;19.006;2023-04-30T00:25:22;99159.50;;;8.35;100.00
41573;BME280;27286;47.870;19.006;2023-04-30T00:27:48;99154.47;;;8.31;100.00
41573;BME280;27286;47.870;19.006;2023-04-30T00:30:14;99152.81;;;8.28;100.00
41573;BME280;27286;47.870;19.006;2023-04-30T00:32:39;99160.59;;;8.28;100.00
41573;BME280;27286;47.870;19.006;2023-04-30T00:35:05;99156.31;;;8.27;100.00
41573;BME280;27286;47.870;19.006;2023-04-30T00:37:30;99159.81;;;8.26;100.00
41573;BME280;27286;47.870;19.006;2023-04-30T00:39:56;99159.19;;;8.20;100.00
41573;BME280;27286;47.870;19.006;2023-04-30T00:42:22;99152.03;;;8.26;100.00
41573;BME280;27286;47.870;19.006;2023-04-30T00:44:47;99157.09;;;8.29;100.00
41573;BME280;27286;47.870;19.006;2023-04-30T00:47:12;99153.63;;;8.30;100.00
41573;BME280;27286;47.870;19.006;2023-04-30T00:49:38;99156.44;;;8.24;100.00
41573;BME280;27286;47.870;19.006;2023-04-30T00:52:04;99158.50;;;8.14;100.00
41573;BME280;27286;47.870;19.006;2023-04-30T00:54:29;99155.44;;;8.03;100.00
41573;BME280;27286;47.870;19.006;2023-04-30T00:56:55;99149.94;;;7.88;100.00
41573;BME280;27286;47.870;19.006;2023-04-30T00:59:20;99148.03;;;7.68;100.00
41573;BME280;27286;47.870;19.006;2023-04-30T01:01:46;99148.50;;;7.54;100.00
41573;BME280;27286;47.870;19.006;2023-04-30T01:04:11;99152.25;;;7.45;100.00
41573;BME280;27286;47.870;19.006;2023-04-30T01:06:37;99139.66;;;7.35;100.00
41573;BME280;27286;47.870;19.006;2023-04-30T01:09:03;99148.97;;;7.40;100.00
41573;BME280;27286;47.870;19.006;2023-04-30T01:14:15;99143.53;;;7.48;100.00
41573;BME280;27286;47.870;19.006;2023-04-30T01:19:43;99143.75;;;7.67;100.00
41573;BME280;27286;47.870;19.006;2023-04-30T01:22:19;99143.69;;;7.68;100.00
41573;BME280;27286;47.870;19.006;2023-04-30T01:28:08;99140.03;;;7.75;100.00
41573;BME280;27286;47.870;19.006;2023-04-30T01:30:35;99136.53;;;7.76;100.00
41573;BME280;27286;47.870;19.006;2023-04-30T01:33:01;99145.81;;;7.82;100.00
41573;BME280;27286;47.870;19.006;2023-04-30T01:35:51;99144.75;;;7.88;100.00
41573;BME280;27286;47.870;19.006;2023-04-30T01:44:24;99133.75;;;8.06;100.00
41573;BME280;27286;47.870;19.006;2023-04-30T01:52:46;99138.53;;;8.17;100.00
41573;BME280;27286;47.870;19.006;2023-04-30T01:55:20;99140.19;;;8.19;100.00
41573;BME280;27286;47.870;19.006;2023-04-30T01:58:09;99138.38;;;8.21;100.00
41573;BME280;27286;47.870;19.006;2023-04-30T02:00:35;99138.28;;;8.24;100.00
41573;BME280;27286;47.870;19.006;2023-04-30T02:03:00;99138.06;;;8.30;100.00
41573;BME280;27286;47.870;19.006;2023-04-30T02:05:26;99139.53;;;8.37;100.00
41573;BME280;27286;47.870;19.006;2023-04-30T02:07:52;99135.03;;;8.42;100.00
41573;BME280;27286;47.870;19.006;2023-04-30T02:10:20;99142.47;;;8.52;100.00
41573;BME280;27286;47.870;19.006;2023-04-30T02:12:45;99134.00;;;8.70;100.00
41573;BME280;27286;47.870;19.006;2023-04-30T02:15:11;99136.94;;;8.61;100.00
41573;BME280;27286;47.870;19.006;2023-04-30T02:17:36;99140.66;;;8.54;100.00
41573;BME280;27286;47.870;19.006;2023-04-30T02:20:02;99147.59;;;8.53;100.00
41573;BME280;27286;47.870;19.006;2023-04-30T02:22:27;99146.75;;;8.53;100.00
41573;BME280;27286;47.870;19.006;2023-04-30T02:24:53;99138.13;;;8.52;100.00
41573;BME280;27286;47.870;19.006;2023-04-30T02:27:20;99125.00;;;8.57;100.00
41573;BME280;27286;47.870;19.006;2023-04-30T02:29:46;99123.53;;;8.71;100.00
41573;BME280;27286;47.870;19.006;2023-04-30T02:32:11;99121.75;;;8.73;100.00
41573;BME280;27286;47.870;19.006;2023-04-30T02:34:36;99113.41;;;8.87;100.00
41573;BME280;27286;47.870;19.006;2023-04-30T02:37:02;99124.41;;;8.94;100.00
41573;BME280;27286;47.870;19.006;2023-04-30T02:39:28;99119.56;;;9.07;100.00
41573;BME280;27286;47.870;19.006;2023-04-30T02:41:54;99126.81;;;8.98;100.00
41573;BME280;27286;47.870;19.006;2023-04-30T02:44:19;99132.28;;;8.69;100.00
41573;BME280;27286;47.870;19.006;2023-04-30T02:46:45;99134.81;;;8.49;100.00
41573;BME280;27286;47.870;19.006;2023-04-30T02:49:10;99121.50;;;8.34;100.00
41573;BME280;27286;47.870;19.006;2023-04-30T02:51:35;99119.44;;;8.19;100.00
41573;BME280;27286;47.870;19.006;2023-04-30T02:54:01;99122.56;;;8.04;100.00
41573;BME280;27286;47.870;19.006;2023-04-30T02:56:26;99127.63;;;8.08;100.00
41573;BME280;27286;47.870;19.006;2023-04-30T02:58:52;99123.44;;;8.04;100.00
41573;BME280;27286;47.870;19.006;2023-04-30T03:01:19;99129.81;;;8.19;100.00
41573;BME280;27286;47.870;19.006;2023-04-30T03:03:44;99133.25;;;8.20;100.00
41573;BME280;27286;47.870;19.006;2023-04-30T03:06:10;99128.00;;;8.21;100.00
41573;BME280;27286;47.870;19.006;2023-04-30T03:08:35;99129.16;;;8.37;100.00
41573;BME280;27286;47.870;19.006;2023-04-30T03:11:00;99121.38;;;8.61;100.00
41573;BME280;27286;47.870;19.006;2023-04-30T03:13:26;99130.03;;;8.83;100.00
41573;BME280;27286;47.870;19.006;2023-04-30T03:15:58;99133.84;;;8.96;100.00
41573;BME280;27286;47.870;19.006;2023-04-30T03:18:24;99141.09;;;9.10;100.00
41573;BME280;27286;47.870;19.006;2023-04-30T03:20:50;99141.72;;;9.15;99.65
41573;BME280;27286;47.870;19.006;2023-04-30T03:23:15;99143.16;;;9.44;97.84
41573;BME280;27286;47.870;19.006;2023-04-30T03:25:40;99137.25;;;9.41;98.08
41573;BME280;27286;47.870;19.006;2023-04-30T03:28:06;99145.19;;;9.58;97.48
41573;BME280;27286;47.870;19.006;2023-04-30T03:30:31;99140.00;;;9.58;96.22
41573;BME280;27286;47.870;19.006;2023-04-30T03:32:57;99141.41;;;9.45;97.08
41573;BME280;27286;47.870;19.006;2023-04-30T03:35:22;99143.22;;;9.43;97.73
41573;BME280;27286;47.870;19.006;2023-04-30T03:37:47;99144.56;;;9.31;98.76
41573;BME280;27286;47.870;19.006;2023-04-30T03:40:13;99147.44;;;9.23;100.00
41573;BME280;27286;47.870;19.006;2023-04-30T03:42:38;99143.94;;;9.46;98.50
41573;BME280;27286;47.870;19.006;2023-04-30T03:45:04;99149.88;;;9.28;99.44
41573;BME280;27286;47.870;19.006;2023-04-30T03:47:30;99146.88;;;9.17;100.00
41573;BME280;27286;47.870;19.006;2023-04-30T03:49:55;99146.66;;;9.43;98.82
41573;BME280;27286;47.870;19.006;2023-04-30T03:52:21;99154.56;;;9.40;98.70
41573;BME280;27286;47.870;19.006;2023-04-30T03:54:46;99160.22;;;9.29;98.93
41573;BME280;27286;47.870;19.006;2023-04-30T03:57:12;99161.00;;;9.10;100.00
41573;BME280;27286;47.870;19.006;2023-04-30T03:59:39;99158.63;;;9.47;98.97
41573;BME280;27286;47.870;19.006;2023-04-30T04:02:04;99159.78;;;9.18;99.89
41573;BME280;27286;47.870;19.006;2023-04-30T04:04:31;99153.63;;;8.99;100.00
41573;BME280;27286;47.870;19.006;2023-04-30T04:06:57;99165.28;;;9.32;100.00
41573;BME280;27286;47.870;19.006;2023-04-30T04:09:23;99166.19;;;9.10;100.00
41573;BME280;27286;47.870;19.006;2023-04-30T04:11:48;99166.03;;;8.92;100.00
41573;BME280;27286;47.870;19.006;2023-04-30T04:14:14;99168.84;;;8.86;100.00
41573;BME280;27286;47.870;19.006;2023-04-30T04:16:40;99172.31;;;9.09;100.00
41573;BME280;27286;47.870;19.006;2023-04-30T04:19:06;99173.94;;;9.11;100.00
41573;BME280;27286;47.870;19.006;2023-04-30T04:21:31;99177.56;;;9.29;100.00
41573;BME280;27286;47.870;19.006;2023-04-30T04:23:57;99171.81;;;8.99;100.00
41573;BME280;27286;47.870;19.006;2023-04-30T04:26:23;99190.56;;;8.84;100.00
41573;BME280;27286;47.870;19.006;2023-04-30T04:28:50;99190.75;;;8.79;100.00
41573;BME280;27286;47.870;19.006;2023-04-30T04:31:16;99186.78;;;8.69;100.00
41573;BME280;27286;47.870;19.006;2023-04-30T04:33:42;99194.09;;;9.04;100.00
41573;BME280;27286;47.870;19.006;2023-04-30T04:36:08;99191.78;;;8.97;100.00
41573;BME280;27286;47.870;19.006;2023-04-30T04:38:34;99197.31;;;8.88;100.00
41573;BME280;27286;47.870;19.006;2023-04-30T04:40:59;99185.25;;;8.87;100.00
41573;BME280;27286;47.870;19.006;2023-04-30T04:43:25;99192.38;;;9.03;100.00
41573;BME280;27286;47.870;19.006;2023-04-30T04:45:50;99196.28;;;9.15;100.00
41573;BME280;27286;47.870;19.006;2023-04-30T04:48:16;99196.34;;;9.14;100.00
41573;BME280;27286;47.870;19.006;2023-04-30T04:50:41;99194.59;;;9.14;100.00
41573;BME280;27286;47.870;19.006;2023-04-30T04:53:07;99201.22;;;9.43;100.00
41573;BME280;27286;47.870;19.006;2023-04-30T04:55:32;99207.38;;;9.62;100.00
41573;BME280;27286;47.870;19.006;2023-04-30T04:57:58;99202.75;;;9.69;100.00
41573;BME280;27286;47.870;19.006;2023-04-30T05:00:24;99198.94;;;9.78;100.00
41573;BME280;27286;47.870;19.006;2023-04-30T05:02:50;99200.75;;;10.16;100.00
41573;BME280;27286;47.870;19.006;2023-04-30T05:05:15;99199.59;;;10.44;100.00
41573;BME280;27286;47.870;19.006;2023-04-30T05:07:41;99200.16;;;10.88;99.40
41573;BME280;27286;47.870;19.006;2023-04-30T05:10:07;99205.00;;;11.14;96.71
41573;BME280;27286;47.870;19.006;2023-04-30T05:12:32;99200.63;;;11.34;95.04
41573;BME280;27286;47.870;19.006;2023-04-30T05:14:58;99199.66;;;11.71;94.24
41573;BME280;27286;47.870;19.006;2023-04-30T05:17:23;99209.81;;;12.12;90.60
41573;BME280;27286;47.870;19.006;2023-04-30T05:19:49;99204.44;;;12.15;88.79
41573;BME280;27286;47.870;19.006;2023-04-30T05:22:15;99214.38;;;12.41;87.41
41573;BME280;27286;47.870;19.006;2023-04-30T05:24:41;99220.56;;;12.56;85.32
41573;BME280;27286;47.870;19.006;2023-04-30T05:27:07;99217.06;;;12.73;85.71
41573;BME280;27286;47.870;19.006;2023-04-30T05:29:32;99221.56;;;13.02;85.01
41573;BME280;27286;47.870;19.006;2023-04-30T05:31:57;99215.94;;;13.25;83.78
41573;BME280;27286;47.870;19.006;2023-04-30T05:34:23;99218.59;;;13.55;82.65
41573;BME280;27286;47.870;19.006;2023-04-30T05:36:48;99223.13;;;13.68;82.45
41573;BME280;27286;47.870;19.006;2023-04-30T05:39:14;99223.81;;;13.71;80.34
41573;BME280;27286;47.870;19.006;2023-04-30T05:41:39;99225.91;;;13.80;78.59
41573;BME280;27286;47.870;19.006;2023-04-30T05:44:05;99222.66;;;13.91;77.58
41573;BME280;27286;47.870;19.006;2023-04-30T05:46:31;99219.94;;;13.93;78.88
41573;BME280;27286;47.870;19.006;2023-04-30T05:48:56;99216.19;;;14.12;78.78
41573;BME280;27286;47.870;19.006;2023-04-30T05:51:21;99224.47;;;14.49;76.66
41573;BME280;27286;47.870;19.006;2023-04-30T05:53:47;99220.44;;;14.58;74.51
41573;BME280;27286;47.870;19.006;2023-04-30T05:56:12;99215.63;;;14.93;72.04
41573;BME280;27286;47.870;19.006;2023-04-30T05:58:38;99215.81;;;15.04;72.31
41573;BME280;27286;47.870;19.006;2023-04-30T06:01:03;99216.13;;;15.26;69.25
41573;BME280;27286;47.870;19.006;2023-04-30T06:03:30;99214.66;;;15.76;67.16
41573;BME280;27286;47.870;19.006;2023-04-30T06:05:55;99215.13;;;15.95;66.28
41573;BME280;27286;47.870;19.006;2023-04-30T06:08:21;99221.78;;;16.27;66.22
41573;BME280;27286;47.870;19.006;2023-04-30T06:10:47;99222.81;;;15.99;66.67
41573;BME280;27286;47.870;19.006;2023-04-30T06:13:12;99224.13;;;16.31;65.60
41573;BME280;27286;47.870;19.006;2023-04-30T06:15:39;99214.22;;;16.60;63.88
41573;BME280;27286;47.870;19.006;2023-04-30T06:18:04;99225.16;;;16.54;64.87
41573;BME280;27286;47.870;19.006;2023-04-30T06:20:30;99220.00;;;16.27;63.89
41573;BME280;27286;47.870;19.006;2023-04-30T06:22:55;99228.75;;;16.53;61.91
41573;BME280;27286;47.870;19.006;2023-04-30T06:25:21;99224.31;;;16.15;60.78
41573;BME280;27286;47.870;19.006;2023-04-30T06:27:46;99228.03;;;15.86;60.57
41573;BME280;27286;47.870;19.006;2023-04-30T06:30:12;99230.69;;;15.59;62.05
41573;BME280;27286;47.870;19.006;2023-04-30T06:32:37;99227.69;;;15.10;63.88
41573;BME280;27286;47.870;19.006;2023-04-30T06:35:03;99230.41;;;15.08;64.65
41573;BME280;27286;47.870;19.006;2023-04-30T06:37:29;99232.28;;;15.06;64.14
41573;BME280;27286;47.870;19.006;2023-04-30T06:40:00;99231.09;;;15.80;64.34
41573;BME280;27286;47.870;19.006;2023-04-30T06:42:25;99235.47;;;16.32;62.05
41573;BME280;27286;47.870;19.006;2023-04-30T06:44:50;99226.09;;;16.91;59.85
41573;BME280;27286;47.870;19.006;2023-04-30T06:47:16;99233.28;;;17.13;57.66
41573;BME280;27286;47.870;19.006;2023-04-30T06:49:41;99234.66;;;17.19;59.14
41573;BME280;27286;47.870;19.006;2023-04-30T06:52:07;99230.88;;;17.47;56.05
41573;BME280;27286;47.870;19.006;2023-04-30T06:54:32;99233.13;;;18.23;57.96
41573;BME280;27286;47.870;19.006;2023-04-30T06:56:57;99227.22;;;18.77;55.39
41573;BME280;27286;47.870;19.006;2023-04-30T06:59:23;99231.19;;;18.71;54.75
41573;BME280;27286;47.870;19.006;2023-04-30T07:01:48;99237.59;;;18.45;54.31
41573;BME280;27286;47.870;19.006;2023-04-30T07:04:14;99234.72;;;18.37;53.60
41573;BME280;27286;47.870;19.006;2023-04-30T07:06:39;99240.53;;;18.18;51.85
41573;BME280;27286;47.870;19.006;2023-04-30T07:09:05;99236.34;;;18.73;53.55
41573;BME280;27286;47.870;19.006;2023-04-30T07:11:31;99233.94;;;18.81;51.09
41573;BME280;27286;47.870;19.006;2023-04-30T07:13:56;99241.19;;;18.32;52.21
41573;BME280;27286;47.870;19.006;2023-04-30T07:16:24;99242.81;;;20.00;51.45
41573;BME280;27286;47.870;19.006;2023-04-30T07:18:51;99244.97;;;21.97;46.99
41573;BME280;27286;47.870;19.006;2023-04-30T07:21:17;99244.13;;;23.74;42.61
41573;BME280;27286;47.870;19.006;2023-04-30T07:23:42;99237.50;;;24.57;40.96
41573;BME280;27286;47.870;19.006;2023-04-30T07:26:09;99235.56;;;25.44;37.99
41573;BME280;27286;47.870;19.006;2023-04-30T07:28:35;99237.31;;;26.26;35.03
41573;BME280;27286;47.870;19.006;2023-04-30T07:31:00;99239.78;;;24.52;37.28
41573;BME280;27286;47.870;19.006;2023-04-30T07:33:26;99247.66;;;22.36;39.81
41573;BME280;27286;47.870;19.006;2023-04-30T07:35:51;99246.22;;;21.14;43.18
41573;BME280;27286;47.870;19.006;2023-04-30T07:38:18;99251.94;;;20.79;43.95
41573;BME280;27286;47.870;19.006;2023-04-30T07:40:43;99250.22;;;20.06;45.82
41573;BME280;27286;47.870;19.006;2023-04-30T07:43:09;99254.69;;;20.47;44.63
41573;BME280;27286;47.870;19.006;2023-04-30T07:45:36;99250.41;;;21.07;43.83
41573;BME280;27286;47.870;19.006;2023-04-30T07:48:01;99245.56;;;22.01;44.87
41573;BME280;27286;47.870;19.006;2023-04-30T07:50:27;99245.00;;;22.16;44.43
41573;BME280;27286;47.870;19.006;2023-04-30T07:52:53;99244.97;;;21.97;43.86
41573;BME280;27286;47.870;19.006;2023-04-30T07:55:19;99236.91;;;21.50;44.25
41573;BME280;27286;47.870;19.006;2023-04-30T07:57:44;99238.97;;;21.37;44.37
41573;BME280;27286;47.870;19.006;2023-04-30T08:00:10;99242.31;;;22.45;42.62
41573;BME280;27286;47.870;19.006;2023-04-30T08:02:36;99234.53;;;23.81;38.46
41573;BME280;27286;47.870;19.006;2023-04-30T08:05:01;99241.38;;;25.47;35.29
41573;BME280;27286;47.870;19.006;2023-04-30T08:07:28;99243.50;;;26.35;34.82
41573;BME280;27286;47.870;19.006;2023-04-30T08:09:53;99248.25;;;26.80;33.77
41573;BME280;27286;47.870;19.006;2023-04-30T08:12:18;99243.47;;;26.51;32.60
41573;BME280;27286;47.870;19.006;2023-04-30T08:14:44;99246.41;;;24.48;35.11
41573;BME280;27286;47.870;19.006;2023-04-30T08:17:09;99253.38;;;22.12;39.45
41573;BME280;27286;47.870;19.006;2023-04-30T08:19:36;99255.88;;;22.04;40.91
41573;BME280;27286;47.870;19.006;2023-04-30T08:22:01;99243.59;;;21.83;40.38
41573;BME280;27286;47.870;19.006;2023-04-30T08:24:27;99255.94;;;23.34;39.58
41573;BME280;27286;47.870;19.006;2023-04-30T08:26:52;99248.00;;;26.18;34.81
41573;BME280;27286;47.870;19.006;2023-04-30T08:29:18;99250.47;;;27.24;33.77
41573;BME280;27286;47.870;19.006;2023-04-30T08:31:43;99233.34;;;27.72;34.32
41573;BME280;27286;47.870;19.006;2023-04-30T08:34:09;99245.09;;;25.55;36.46
41573;BME280;27286;47.870;19.006;2023-04-30T08:36:34;99249.75;;;25.10;37.55
41573;BME280;27286;47.870;19.006;2023-04-30T08:39:00;99247.38;;;24.04;37.24
41573;BME280;27286;47.870;19.006;2023-04-30T08:41:31;99246.00;;;25.21;36.97
41573;BME280;27286;47.870;19.006;2023-04-30T08:44:00;99241.34;;;28.18;33.69
41573;BME280;27286;47.870;19.006;2023-04-30T08:46:28;99240.84;;;30.13;26.58
41573;BME280;27286;47.870;19.006;2023-04-30T08:48:56;99235.03;;;31.41;27.25
41573;BME280;27286;47.870;19.006;2023-04-30T08:51:23;99230.59;;;32.67;25.70
41573;BME280;27286;47.870;19.006;2023-04-30T08:53:49;99236.41;;;32.84;24.31
41573;BME280;27286;47.870;19.006;2023-04-30T08:56:15;99230.41;;;31.83;23.55
41573;BME280;27286;47.870;19.006;2023-04-30T08:58:40;99239.69;;;28.40;29.20
41573;BME280;27286;47.870;19.006;2023-04-30T09:01:07;99246.81;;;26.53;32.61
41573;BME280;27286;47.870;19.006;2023-04-30T09:03:34;99238.38;;;25.00;35.74
41573;BME280;27286;47.870;19.006;2023-04-30T09:06:00;99249.22;;;24.03;38.55
41573;BME280;27286;47.870;19.006;2023-04-30T09:08:42;99243.81;;;23.59;38.63
41573;BME280;27286;47.870;19.006;2023-04-30T09:11:24;99233.50;;;25.22;35.17
41573;BME280;27286;47.870;19.006;2023-04-30T09:13:52;99243.03;;;27.03;33.59
41573;BME280;27286;47.870;19.006;2023-04-30T09:16:19;99241.94;;;25.09;35.53
41573;BME280;27286;47.870;19.006;2023-04-30T09:18:44;99237.00;;;24.18;36.88
41573;BME280;27286;47.870;19.006;2023-04-30T09:21:11;99246.91;;;23.27;38.17
41573;BME280;27286;47.870;19.006;2023-04-30T09:23:36;99248.38;;;22.18;38.64
41573;BME280;27286;47.870;19.006;2023-04-30T09:26:01;99249.72;;;21.65;40.03
41573;BME280;27286;47.870;19.006;2023-04-30T09:28:27;99242.16;;;21.41;43.71
41573;BME280;27286;47.870;19.006;2023-04-30T09:30:55;99245.66;;;21.01;44.24
41573;BME280;27286;47.870;19.006;2023-04-30T09:33:21;99247.28;;;20.41;43.67
41573;BME280;27286;47.870;19.006;2023-04-30T09:35:47;99246.69;;;20.37;47.18
41573;BME280;27286;47.870;19.006;2023-04-30T09:38:27;99247.53;;;20.17;46.31
41573;BME280;27286;47.870;19.006;2023-04-30T09:40:53;99239.22;;;20.01;44.83
41573;BME280;27286;47.870;19.006;2023-04-30T09:43:18;99239.59;;;20.17;44.94
41573;BME280;27286;47.870;19.006;2023-04-30T09:45:45;99236.38;;;20.34;43.51
41573;BME280;27286;47.870;19.006;2023-04-30T09:48:16;99243.50;;;20.55;43.47
41573;BME280;27286;47.870;19.006;2023-04-30T09:50:42;99230.75;;;21.00;40.77
41573;BME280;27286;47.870;19.006;2023-04-30T09:53:10;99222.47;;;23.87;36.30
41573;BME280;27286;47.870;19.006;2023-04-30T09:55:46;99221.38;;;23.17;36.61
41573;BME280;27286;47.870;19.006;2023-04-30T09:58:12;99215.50;;;25.90;31.43
41573;BME280;27286;47.870;19.006;2023-04-30T10:00:38;99207.56;;;28.99;29.05
41573;BME280;27286;47.870;19.006;2023-04-30T10:03:09;99205.28;;;31.01;28.39
41573;BME280;27286;47.870;19.006;2023-04-30T10:05:41;99197.72;;;31.92;23.09
41573;BME280;27286;47.870;19.006;2023-04-30T10:08:26;99207.31;;;28.94;24.46
41573;BME280;27286;47.870;19.006;2023-04-30T10:13:30;99211.69;;;25.34;31.50
41573;BME280;27286;47.870;19.006;2023-04-30T10:15:59;99206.31;;;24.76;35.12
41573;BME280;27286;47.870;19.006;2023-04-30T10:18:33;99210.28;;;24.20;37.36
41573;BME280;27286;47.870;19.006;2023-04-30T10:21:02;99212.75;;;23.60;37.71
41573;BME280;27286;47.870;19.006;2023-04-30T10:23:29;99215.97;;;23.08;40.10
41573;BME280;27286;47.870;19.006;2023-04-30T10:25:56;99210.88;;;22.50;39.14
41573;BME280;27286;47.870;19.006;2023-04-30T10:28:22;99214.00;;;22.36;37.40
41573;BME280;27286;47.870;19.006;2023-04-30T10:30:49;99217.09;;;22.22;37.50
41573;BME280;27286;47.870;19.006;2023-04-30T10:33:33;99215.13;;;22.14;36.41
41573;BME280;27286;47.870;19.006;2023-04-30T10:36:06;99215.31;;;21.84;35.24
41573;BME280;27286;47.870;19.006;2023-04-30T10:38:36;99217.66;;;21.87;35.53
41573;BME280;27286;47.870;19.006;2023-04-30T10:41:05;99209.91;;;25.51;33.49
41573;BME280;27286;47.870;19.006;2023-04-30T10:43:34;99207.91;;;27.22;30.42
41573;BME280;27286;47.870;19.006;2023-04-30T10:46:01;99218.16;;;25.74;32.87
41573;BME280;27286;47.870;19.006;2023-04-30T10:48:27;99213.88;;;24.88;33.43
41573;BME280;27286;47.870;19.006;2023-04-30T10:50:58;99217.00;;;23.88;34.66
41573;BME280;27286;47.870;19.006;2023-04-30T10:53:24;99219.28;;;23.20;37.26
41573;BME280;27286;47.870;19.006;2023-04-30T10:56:02;99221.47;;;22.60;39.56
41573;BME280;27286;47.870;19.006;2023-04-30T10:58:34;99224.63;;;22.27;40.37
41573;BME280;27286;47.870;19.006;2023-04-30T11:01:05;99222.34;;;22.41;42.85
41573;BME280;27286;47.870;19.006;2023-04-30T11:03:34;99224.03;;;22.42;41.12
41573;BME280;27286;47.870;19.006;2023-04-30T11:06:00;99218.22;;;22.10;43.80
41573;BME280;27286;47.870;19.006;2023-04-30T11:08:32;99226.31;;;22.08;42.83
41573;BME280;27286;47.870;19.006;2023-04-30T11:10:58;99215.84;;;21.87;38.88
41573;BME280;27286;47.870;19.006;2023-04-30T11:13:28;99221.41;;;21.94;39.98
41573;BME280;27286;47.870;19.006;2023-04-30T11:15:53;99217.53;;;22.64;40.41
41573;BME280;27286;47.870;19.006;2023-04-30T11:18:19;99225.50;;;22.17;41.55
41573;BME280;27286;47.870;19.006;2023-04-30T11:20:50;99233.84;;;22.03;40.62
41573;BME280;27286;47.870;19.006;2023-04-30T11:23:20;99222.69;;;21.90;39.31
41573;BME280;27286;47.870;19.006;2023-04-30T11:25:47;99229.91;;;21.49;39.70
41573;BME280;27286;47.870;19.006;2023-04-30T11:28:23;99220.91;;;21.21;39.55
41573;BME280;27286;47.870;19.006;2023-04-30T11:30:56;99219.91;;;21.13;39.16
41573;BME280;27286;47.870;19.006;2023-04-30T11:33:24;99219.06;;;20.72;40.82
41573;BME280;27286;47.870;19.006;2023-04-30T11:35:50;99222.91;;;20.58;42.48
41573;BME280;27286;47.870;19.006;2023-04-30T11:38:19;99227.97;;;20.29;42.73
41573;BME280;27286;47.870;19.006;2023-04-30T11:40:46;99224.13;;;20.33;43.20
41573;BME280;27286;47.870;19.006;2023-04-30T11:43:31;99223.66;;;20.07;42.72
41573;BME280;27286;47.870;19.006;2023-04-30T11:46:14;99232.03;;;20.12;42.37
41573;BME280;27286;47.870;19.006;2023-04-30T11:48:43;99234.78;;;20.43;44.14
41573;BME280;27286;47.870;19.006;2023-04-30T11:51:20;99228.72;;;20.52;44.79
41573;BME280;27286;47.870;19.006;2023-04-30T11:53:47;99225.47;;;20.28;43.03
41573;BME280;27286;47.870;19.006;2023-04-30T11:56:17;99231.09;;;20.34;49.80
41573;BME280;27286;47.870;19.006;2023-04-30T11:58:45;99237.44;;;20.32;46.55
41573;BME280;27286;47.870;19.006;2023-04-30T12:01:11;99231.53;;;20.39;46.24
41573;BME280;27286;47.870;19.006;2023-04-30T12:03:55;99226.78;;;20.33;45.16
41573;BME280;27286;47.870;19.006;2023-04-30T12:08:47;99230.78;;;20.49;44.54
41573;BME280;27286;47.870;19.006;2023-04-30T12:11:20;99235.69;;;20.84;45.69
41573;BME280;27286;47.870;19.006;2023-04-30T12:13:50;99222.69;;;21.11;42.07
41573;BME280;27286;47.870;19.006;2023-04-30T12:16:16;99226.41;;;21.49;41.67
41573;BME280;27286;47.870;19.006;2023-04-30T12:18:41;99224.63;;;21.69;40.78
41573;BME280;27286;47.870;19.006;2023-04-30T12:21:08;99219.75;;;21.14;41.56
41573;BME280;27286;47.870;19.006;2023-04-30T12:23:34;99214.72;;;21.42;38.43
41573;BME280;27286;47.870;19.006;2023-04-30T12:26:00;99207.63;;;22.10;40.57
41573;BME280;27286;47.870;19.006;2023-04-30T12:28:26;99214.41;;;22.32;38.66
41573;BME280;27286;47.870;19.006;2023-04-30T12:30:52;99208.47;;;22.20;41.35
41573;BME280;27286;47.870;19.006;2023-04-30T12:33:18;99204.28;;;22.17;37.57
41573;BME280;27286;47.870;19.006;2023-04-30T12:35:43;99202.72;;;22.34;42.22
41573;BME280;27286;47.870;19.006;2023-04-30T12:38:09;99194.91;;;21.94;37.76
41573;BME280;27286;47.870;19.006;2023-04-30T12:40:34;99198.94;;;21.50;38.90
41573;BME280;27286;47.870;19.006;2023-04-30T12:43:06;99193.25;;;21.54;42.72
41573;BME280;27286;47.870;19.006;2023-04-30T12:45:51;99187.69;;;21.57;42.42
41573;BME280;27286;47.870;19.006;2023-04-30T12:48:18;99196.19;;;21.51;42.45
41573;BME280;27286;47.870;19.006;2023-04-30T12:50:51;99189.88;;;21.33;43.32
41573;BME280;27286;47.870;19.006;2023-04-30T12:53:16;99186.00;;;20.97;43.19
41573;BME280;27286;47.870;19.006;2023-04-30T12:55:42;99175.94;;;20.81;40.89
41573;BME280;27286;47.870;19.006;2023-04-30T12:58:13;99172.38;;;20.61;42.17
41573;BME280;27286;47.870;19.006;2023-04-30T13:00:43;99172.31;;;20.82;44.99
41573;BME280;27286;47.870;19.006;2023-04-30T13:03:09;99167.59;;;21.45;43.37
41573;BME280;27286;47.870;19.006;2023-04-30T13:05:34;99177.50;;;21.91;44.88
41573;BME280;27286;47.870;19.006;2023-04-30T13:08:01;99179.72;;;21.57;42.16
41573;BME280;27286;47.870;19.006;2023-04-30T13:10:27;99182.91;;;21.32;44.91
41573;BME280;27286;47.870;19.006;2023-04-30T13:12:52;99184.06;;;20.99;45.82
41573;BME280;27286;47.870;19.006;2023-04-30T13:15:18;99169.41;;;20.85;46.48